sensor_id;sensor_type;location;lat;lon;timestamp;pressure;altitude;pressure_sealevel;temperature;humidity
69060;BME280;56135;37.534;-122.308;2022-12-10T00:01:27;101771.59;;;11.72;100.00
69060;BME280;56135;37.534;-122.308;2022-12-10T00:03:53;101783.97;;;11.68;100.00
69060;BME280;56135;37.534;-122.308;2022-12-10T00:06:20;101777.78;;;11.63;100.00
69060;BME280;56135;37.534;-122.308;2022-12-10T00:08:46;101772.53;;;11.55;100.00
69060;BME280;56135;37.534;-122.308;2022-12-10T00:11:32;101779.56;;;11.50;100.00
69060;BME280;56135;37.534;-122.308;2022-12-10T00:13:58;101771.63;;;11.41;100.00
69060;BME280;56135;37.534;-122.308;2022-12-10T00:16:25;101776.91;;;11.34;100.00
69060;BME280;56135;37.534;-122.308;2022-12-10T00:18:52;101774.25;;;11.27;100.00
69060;BME280;56135;37.534;-122.308;2022-12-10T00:21:19;101767.22;;;11.18;100.00
69060;BME280;56135;37.534;-122.308;2022-12-10T00:23:45;101759.28;;;11.10;100.00
69060;BME280;56135;37.534;-122.308;2022-12-10T00:26:12;101749.53;;;11.01;100.00
69060;BME280;56135;37.534;-122.308;2022-12-10T00:28:39;101756.59;;;10.92;100.00
69060;BME280;56135;37.534;-122.308;2022-12-10T00:31:05;101756.56;;;10.82;100.00
69060;BME280;56135;37.534;-122.308;2022-12-10T00:33:32;101757.41;;;10.75;100.00
69060;BME280;56135;37.534;-122.308;2022-12-10T00:36:04;101762.69;;;10.64;100.00
69060;BME280;56135;37.534;-122.308;2022-12-10T00:38:30;101759.16;;;10.62;100.00
69060;BME280;56135;37.534;-122.308;2022-12-10T00:40:56;101755.63;;;10.56;100.00
69060;BME280;56135;37.534;-122.308;2022-12-10T00:43:22;101746.78;;;10.52;100.00
69060;BME280;56135;37.534;-122.308;2022-12-10T00:45:47;101761.75;;;10.45;100.00
69060;BME280;56135;37.534;-122.308;2022-12-10T00:48:13;101761.72;;;10.39;100.00
69060;BME280;56135;37.534;-122.308;2022-12-10T00:50:39;101763.41;;;10.32;100.00
69060;BME280;56135;37.534;-122.308;2022-12-10T00:53:05;101753.66;;;10.24;100.00
69060;BME280;56135;37.534;-122.308;2022-12-10T00:55:30;101748.34;;;10.14;100.00
69060;BME280;56135;37.534;-122.308;2022-12-10T00:57:56;101743.91;;;10.07;100.00
69060;BME280;56135;37.534;-122.308;2022-12-10T01:00:22;101734.22;;;10.01;100.00
69060;BME280;56135;37.534;-122.308;2022-12-10T01:02:49;101744.72;;;9.97;100.00
69060;BME280;56135;37.534;-122.308;2022-12-10T01:05:15;101742.94;;;9.91;100.00
69060;BME280;56135;37.534;-122.308;2022-12-10T01:07:41;101745.59;;;9.91;100.00
69060;BME280;56135;37.534;-122.308;2022-12-10T01:10:07;101727.09;;;9.88;100.00
69060;BME280;56135;37.534;-122.308;2022-12-10T01:12:33;101724.47;;;9.88;100.00
69060;BME280;56135;37.534;-122.308;2022-12-10T01:14:59;101729.75;;;9.88;100.00
69060;BME280;56135;37.534;-122.308;2022-12-10T01:17:24;101731.47;;;9.83;100.00
69060;BME280;56135;37.534;-122.308;2022-12-10T01:19:50;101731.47;;;9.86;100.00
69060;BME280;56135;37.534;-122.308;2022-12-10T01:22:16;101729.72;;;9.87;100.00
69060;BME280;56135;37.534;-122.308;2022-12-10T01:24:42;101727.09;;;9.88;100.00
69060;BME280;56135;37.534;-122.308;2022-12-10T01:27:08;101718.28;;;9.89;100.00
69060;BME280;56135;37.534;-122.308;2022-12-10T01:29:33;101714.78;;;9.92;100.00
69060;BME280;56135;37.534;-122.308;2022-12-10T01:31:59;101708.63;;;9.91;100.00
69060;BME280;56135;37.534;-122.308;2022-12-10T01:34:25;101712.16;;;9.92;100.00
69060;BME280;56135;37.534;-122.308;2022-12-10T01:36:52;101713.06;;;9.94;100.00
69060;BME280;56135;37.534;-122.308;2022-12-10T01:39:19;101728.91;;;9.95;100.00
69060;BME280;56135;37.534;-122.308;2022-12-10T01:41:49;101727.97;;;9.92;100.00
69060;BME280;56135;37.534;-122.308;2022-12-10T01:46:43;101709.53;;;9.95;100.00
69060;BME280;56135;37.534;-122.308;2022-12-10T01:49:12;101709.56;;;9.96;100.00
69060;BME280;56135;37.534;-122.308;2022-12-10T01:51:40;101703.41;;;9.99;100.00
69060;BME280;56135;37.534;-122.308;2022-12-10T01:54:08;101706.06;;;10.04;100.00
69060;BME280;56135;37.534;-122.308;2022-12-10T01:56:54;101703.41;;;10.04;100.00
69060;BME280;56135;37.534;-122.308;2022-12-10T01:59:22;101692.00;;;10.08;100.00
69060;BME280;56135;37.534;-122.308;2022-12-10T02:07:37;101672.63;;;10.06;100.00
69060;BME280;56135;37.534;-122.308;2022-12-10T02:09:58;101662.94;;;10.05;100.00
69060;BME280;56135;37.534;-122.308;2022-12-10T02:12:29;101660.31;;;10.01;100.00
69060;BME280;56135;37.534;-122.308;2022-12-10T02:15:02;101647.06;;;9.98;100.00
69060;BME280;56135;37.534;-122.308;2022-12-10T02:18:12;101648.84;;;9.98;100.00
69060;BME280;56135;37.534;-122.308;2022-12-10T02:20:19;101645.34;;;9.99;100.00
69060;BME280;56135;37.534;-122.308;2022-12-10T02:22:50;101651.47;;;9.98;100.00
69060;BME280;56135;37.534;-122.308;2022-12-10T02:25:19;101643.56;;;9.98;100.00
69060;BME280;56135;37.534;-122.308;2022-12-10T02:30:11;101656.75;;;9.99;100.00
69060;BME280;56135;37.534;-122.308;2022-12-10T02:32:38;101662.03;;;9.98;100.00
69060;BME280;56135;37.534;-122.308;2022-12-10T02:35:09;101666.44;;;9.97;100.00
69060;BME280;56135;37.534;-122.308;2022-12-10T02:37:41;101662.03;;;9.99;100.00
69060;BME280;56135;37.534;-122.308;2022-12-10T02:40:11;101658.53;;;10.02;100.00
69060;BME280;56135;37.534;-122.308;2022-12-10T02:42:41;101653.25;;;10.02;100.00
69060;BME280;56135;37.534;-122.308;2022-12-10T02:45:09;101650.56;;;9.96;100.00
69060;BME280;56135;37.534;-122.308;2022-12-10T02:47:35;101658.53;;;9.97;100.00
69060;BME280;56135;37.534;-122.308;2022-12-10T02:50:02;101654.97;;;9.95;100.00
69060;BME280;56135;37.534;-122.308;2022-12-10T02:52:28;101655.00;;;9.97;100.00
69060;BME280;56135;37.534;-122.308;2022-12-10T02:54:54;101671.72;;;9.99;100.00
69060;BME280;56135;37.534;-122.308;2022-12-10T03:00:06;101676.97;;;9.88;100.00
69060;BME280;56135;37.534;-122.308;2022-12-10T03:02:34;101679.59;;;9.93;100.00
69060;BME280;56135;37.534;-122.308;2022-12-10T03:05:02;101676.09;;;9.92;100.00
69060;BME280;56135;37.534;-122.308;2022-12-10T03:07:34;101682.25;;;9.91;100.00
69060;BME280;56135;37.534;-122.308;2022-12-10T03:10:11;101682.25;;;9.93;100.00
69060;BME280;56135;37.534;-122.308;2022-12-10T03:12:47;101676.97;;;9.90;100.00
69060;BME280;56135;37.534;-122.308;2022-12-10T03:15:14;101681.34;;;9.86;100.00
69060;BME280;56135;37.534;-122.308;2022-12-10T03:17:41;101677.78;;;9.84;100.00
69060;BME280;56135;37.534;-122.308;2022-12-10T03:20:11;101690.97;;;9.82;100.00
69060;BME280;56135;37.534;-122.308;2022-12-10T03:22:38;101679.50;;;9.77;100.00
69060;BME280;56135;37.534;-122.308;2022-12-10T03:25:05;101686.56;;;9.74;100.00
69060;BME280;56135;37.534;-122.308;2022-12-10T03:27:32;101682.16;;;9.73;100.00
69060;BME280;56135;37.534;-122.308;2022-12-10T03:29:58;101679.50;;;9.70;100.00
69060;BME280;56135;37.534;-122.308;2022-12-10T03:32:25;101668.03;;;9.69;100.00
69060;BME280;56135;37.534;-122.308;2022-12-10T03:34:52;101658.34;;;9.66;100.00
69060;BME280;56135;37.534;-122.308;2022-12-10T03:37:19;101661.84;;;9.64;100.00
69060;BME280;56135;37.534;-122.308;2022-12-10T03:39:46;101668.91;;;9.65;100.00
69060;BME280;56135;37.534;-122.308;2022-12-10T03:42:12;101667.97;;;9.57;100.00
69060;BME280;56135;37.534;-122.308;2022-12-10T03:44:38;101673.28;;;9.60;100.00
69060;BME280;56135;37.534;-122.308;2022-12-10T03:47:06;101667.97;;;9.54;100.00
69060;BME280;56135;37.534;-122.308;2022-12-10T03:49:33;101671.47;;;9.52;100.00
69060;BME280;56135;37.534;-122.308;2022-12-10T03:52:04;101666.22;;;9.52;100.00
69060;BME280;56135;37.534;-122.308;2022-12-10T03:54:30;101666.22;;;9.56;100.00
69060;BME280;56135;37.534;-122.308;2022-12-10T03:56:56;101666.22;;;9.56;100.00
69060;BME280;56135;37.534;-122.308;2022-12-10T03:59:22;101665.34;;;9.55;100.00
69060;BME280;56135;37.534;-122.308;2022-12-10T04:01:48;101665.34;;;9.60;100.00
69060;BME280;56135;37.534;-122.308;2022-12-10T04:04:14;101657.44;;;9.58;100.00
69060;BME280;56135;37.534;-122.308;2022-12-10T04:06:40;101653.94;;;9.64;100.00
69060;BME280;56135;37.534;-122.308;2022-12-10T04:09:07;101660.13;;;9.64;100.00
69060;BME280;56135;37.534;-122.308;2022-12-10T04:11:34;101656.59;;;9.65;100.00
69060;BME280;56135;37.534;-122.308;2022-12-10T04:14:00;101655.72;;;9.68;100.00
69060;BME280;56135;37.534;-122.308;2022-12-10T04:16:44;101649.63;;;9.72;100.00
69060;BME280;56135;37.534;-122.308;2022-12-10T04:19:11;101641.66;;;9.69;100.00
69060;BME280;56135;37.534;-122.308;2022-12-10T04:21:37;101639.03;;;9.67;100.00
69060;BME280;56135;37.534;-122.308;2022-12-10T04:24:27;101643.44;;;9.67;100.00
69060;BME280;56135;37.534;-122.308;2022-12-10T04:27:13;101652.22;;;9.67;100.00
69060;BME280;56135;37.534;-122.308;2022-12-10T04:29:42;101649.56;;;9.69;100.00
69060;BME280;56135;37.534;-122.308;2022-12-10T04:32:07;101643.44;;;9.68;100.00
69060;BME280;56135;37.534;-122.308;2022-12-10T04:34:33;101644.28;;;9.67;100.00
69060;BME280;56135;37.534;-122.308;2022-12-10T04:36:59;101648.72;;;9.68;100.00
69060;BME280;56135;37.534;-122.308;2022-12-10T04:39:26;101657.53;;;9.74;100.00
69060;BME280;56135;37.534;-122.308;2022-12-10T04:41:52;101658.41;;;9.76;100.00
69060;BME280;56135;37.534;-122.308;2022-12-10T04:44:18;101660.19;;;9.77;100.00
69060;BME280;56135;37.534;-122.308;2022-12-10T04:46:44;101661.09;;;9.80;100.00
69060;BME280;56135;37.534;-122.308;2022-12-10T04:49:10;101658.44;;;9.79;100.00
69060;BME280;56135;37.534;-122.308;2022-12-10T04:51:36;101663.72;;;9.82;100.00
69060;BME280;56135;37.534;-122.308;2022-12-10T04:54:02;101654.94;;;9.83;100.00
69060;BME280;56135;37.534;-122.308;2022-12-10T04:56:28;101654.03;;;9.84;100.00
69060;BME280;56135;37.534;-122.308;2022-12-10T04:58:55;101649.66;;;9.83;100.00
69060;BME280;56135;37.534;-122.308;2022-12-10T05:01:21;101639.09;;;9.86;100.00
69060;BME280;56135;37.534;-122.308;2022-12-10T05:03:47;101636.47;;;9.81;100.00
69060;BME280;56135;37.534;-122.308;2022-12-10T05:06:14;101640.00;;;9.90;100.00
69060;BME280;56135;37.534;-122.308;2022-12-10T05:08:43;101629.47;;;9.93;100.00
69060;BME280;56135;37.534;-122.308;2022-12-10T05:11:10;101623.34;;;10.01;100.00
69060;BME280;56135;37.534;-122.308;2022-12-10T05:13:36;101618.06;;;10.05;100.00
69060;BME280;56135;37.534;-122.308;2022-12-10T05:16:03;101622.47;;;10.04;100.00
69060;BME280;56135;37.534;-122.308;2022-12-10T05:18:29;101617.19;;;10.07;100.00
69060;BME280;56135;37.534;-122.308;2022-12-10T05:20:57;101622.47;;;10.06;100.00
69060;BME280;56135;37.534;-122.308;2022-12-10T05:23:23;101622.47;;;10.09;100.00
69060;BME280;56135;37.534;-122.308;2022-12-10T05:25:58;101628.66;;;10.09;100.00
69060;BME280;56135;37.534;-122.308;2022-12-10T05:28:25;101620.72;;;10.06;100.00
69060;BME280;56135;37.534;-122.308;2022-12-10T05:30:51;101618.97;;;10.08;100.00
69060;BME280;56135;37.534;-122.308;2022-12-10T05:33:17;101613.69;;;10.10;100.00
69060;BME280;56135;37.534;-122.308;2022-12-10T05:35:43;101613.69;;;10.11;100.00
69060;BME280;56135;37.534;-122.308;2022-12-10T05:38:09;101614.56;;;10.12;100.00
69060;BME280;56135;37.534;-122.308;2022-12-10T05:40:36;101618.09;;;10.11;100.00
69060;BME280;56135;37.534;-122.308;2022-12-10T05:43:02;101613.66;;;10.02;100.00
69060;BME280;56135;37.534;-122.308;2022-12-10T05:45:33;101617.16;;;9.96;100.00
69060;BME280;56135;37.534;-122.308;2022-12-10T05:47:59;101601.31;;;10.01;100.00
69060;BME280;56135;37.534;-122.308;2022-12-10T05:50:26;101601.31;;;9.98;100.00
69060;BME280;56135;37.534;-122.308;2022-12-10T05:52:52;101591.63;;;9.98;100.00
69060;BME280;56135;37.534;-122.308;2022-12-10T05:55:18;101582.84;;;9.98;100.00
69060;BME280;56135;37.534;-122.308;2022-12-10T05:57:43;101586.34;;;9.94;100.00
69060;BME280;56135;37.534;-122.308;2022-12-10T06:00:09;101580.22;;;9.95;100.00
69060;BME280;56135;37.534;-122.308;2022-12-10T06:02:35;101573.16;;;9.95;100.00
69060;BME280;56135;37.534;-122.308;2022-12-10T06:05:01;101567.81;;;9.75;100.00
69060;BME280;56135;37.534;-122.308;2022-12-10T06:07:28;101564.31;;;9.81;100.00
69060;BME280;56135;37.534;-122.308;2022-12-10T06:09:54;101554.66;;;9.81;100.00
69060;BME280;56135;37.534;-122.308;2022-12-10T06:12:22;101559.91;;;9.80;100.00
69060;BME280;56135;37.534;-122.308;2022-12-10T06:14:48;101550.19;;;9.66;100.00
69060;BME280;56135;37.534;-122.308;2022-12-10T06:17:14;101552.84;;;9.70;100.00
69060;BME280;56135;37.534;-122.308;2022-12-10T06:19:40;101537.91;;;9.70;100.00
69060;BME280;56135;37.534;-122.308;2022-12-10T06:22:06;101547.53;;;9.62;100.00
69060;BME280;56135;37.534;-122.308;2022-12-10T06:24:32;101551.91;;;9.58;100.00
69060;BME280;56135;37.534;-122.308;2022-12-10T06:26:58;101557.22;;;9.63;100.00
69060;BME280;56135;37.534;-122.308;2022-12-10T06:29:24;101566.88;;;9.64;100.00
69060;BME280;56135;37.534;-122.308;2022-12-10T06:31:49;101555.41;;;9.56;100.00
69060;BME280;56135;37.534;-122.308;2022-12-10T06:34:15;101555.41;;;9.54;100.00
69060;BME280;56135;37.534;-122.308;2022-12-10T06:36:41;101541.41;;;9.63;100.00
69060;BME280;56135;37.534;-122.308;2022-12-10T06:39:07;101539.66;;;9.70;100.00
69060;BME280;56135;37.534;-122.308;2022-12-10T06:41:33;101541.41;;;9.69;100.00
69060;BME280;56135;37.534;-122.308;2022-12-10T06:43:58;101550.22;;;9.70;100.00
69060;BME280;56135;37.534;-122.308;2022-12-10T06:46:25;101542.28;;;9.66;100.00
69060;BME280;56135;37.534;-122.308;2022-12-10T06:48:52;101528.22;;;9.63;100.00
69060;BME280;56135;37.534;-122.308;2022-12-10T06:51:23;101519.44;;;9.68;100.00
69060;BME280;56135;37.534;-122.308;2022-12-10T06:53:50;101522.94;;;9.67;100.00
69060;BME280;56135;37.534;-122.308;2022-12-10T06:56:16;101533.50;;;9.64;100.00
69060;BME280;56135;37.534;-122.308;2022-12-10T06:58:43;101522.03;;;9.65;100.00
69060;BME280;56135;37.534;-122.308;2022-12-10T07:03:35;101512.41;;;9.80;100.00
69060;BME280;56135;37.534;-122.308;2022-12-10T07:06:01;101512.44;;;9.89;100.00
69060;BME280;56135;37.534;-122.308;2022-12-10T07:08:27;101517.72;;;9.89;100.00
69060;BME280;56135;37.534;-122.308;2022-12-10T07:10:53;101523.00;;;9.86;100.00
69060;BME280;56135;37.534;-122.308;2022-12-10T07:13:19;101517.72;;;9.83;100.00
69060;BME280;56135;37.534;-122.308;2022-12-10T07:15:45;101509.78;;;9.83;100.00
69060;BME280;56135;37.534;-122.308;2022-12-10T07:18:10;101509.75;;;9.80;100.00
69060;BME280;56135;37.534;-122.308;2022-12-10T07:20:36;101512.44;;;9.84;100.00
69060;BME280;56135;37.534;-122.308;2022-12-10T07:23:02;101512.44;;;9.84;100.00
69060;BME280;56135;37.534;-122.308;2022-12-10T07:25:28;101512.44;;;9.83;100.00
69060;BME280;56135;37.534;-122.308;2022-12-10T07:27:55;101514.16;;;9.81;100.00
69060;BME280;56135;37.534;-122.308;2022-12-10T07:30:21;101510.66;;;9.85;100.00
69060;BME280;56135;37.534;-122.308;2022-12-10T07:32:47;101500.09;;;9.85;100.00
69060;BME280;56135;37.534;-122.308;2022-12-10T07:35:12;101495.69;;;9.82;100.00
69060;BME280;56135;37.534;-122.308;2022-12-10T07:37:38;101489.56;;;9.82;100.00
69060;BME280;56135;37.534;-122.308;2022-12-10T07:40:04;101483.41;;;9.81;100.00
69060;BME280;56135;37.534;-122.308;2022-12-10T07:42:30;101481.63;;;9.83;100.00
69060;BME280;56135;37.534;-122.308;2022-12-10T07:44:56;101477.25;;;9.85;100.00
69060;BME280;56135;37.534;-122.308;2022-12-10T07:47:22;101479.88;;;9.84;100.00
69060;BME280;56135;37.534;-122.308;2022-12-10T07:49:47;101471.97;;;9.85;100.00
69060;BME280;56135;37.534;-122.308;2022-12-10T07:52:13;101466.69;;;9.82;100.00
69060;BME280;56135;37.534;-122.308;2022-12-10T07:54:39;101458.78;;;9.85;100.00
69060;BME280;56135;37.534;-122.308;2022-12-10T07:57:05;101440.31;;;9.85;100.00
69060;BME280;56135;37.534;-122.308;2022-12-10T07:59:31;101449.06;;;9.80;100.00
69060;BME280;56135;37.534;-122.308;2022-12-10T08:01:56;101445.53;;;9.75;100.00
69060;BME280;56135;37.534;-122.308;2022-12-10T08:04:22;101447.31;;;9.71;100.00
69060;BME280;56135;37.534;-122.308;2022-12-10T08:06:48;101438.53;;;9.77;100.00
69060;BME280;56135;37.534;-122.308;2022-12-10T08:09:14;101433.28;;;9.83;100.00
69060;BME280;56135;37.534;-122.308;2022-12-10T08:11:40;101422.72;;;9.83;100.00
69060;BME280;56135;37.534;-122.308;2022-12-10T08:14:06;101421.84;;;9.85;100.00
69060;BME280;56135;37.534;-122.308;2022-12-10T08:16:32;101423.59;;;9.83;100.00
69060;BME280;56135;37.534;-122.308;2022-12-10T08:18:58;101404.22;;;9.84;100.00
69060;BME280;56135;37.534;-122.308;2022-12-10T08:21:26;101396.31;;;9.89;100.00
69060;BME280;56135;37.534;-122.308;2022-12-10T08:23:52;101387.53;;;9.89;100.00
69060;BME280;56135;37.534;-122.308;2022-12-10T08:26:20;101385.75;;;9.89;100.00
69060;BME280;56135;37.534;-122.308;2022-12-10T08:28:46;101372.56;;;9.89;100.00
69060;BME280;56135;37.534;-122.308;2022-12-10T08:31:13;101376.09;;;9.90;100.00
69060;BME280;56135;37.534;-122.308;2022-12-10T08:33:39;101375.19;;;9.95;100.00
69060;BME280;56135;37.534;-122.308;2022-12-10T08:36:06;101368.19;;;9.97;100.00
69060;BME280;56135;37.534;-122.308;2022-12-10T08:38:32;101363.75;;;9.99;100.00
69060;BME280;56135;37.534;-122.308;2022-12-10T08:40:58;101360.22;;;10.04;100.00
69060;BME280;56135;37.534;-122.308;2022-12-10T08:43:24;101367.28;;;10.05;100.00
69060;BME280;56135;37.534;-122.308;2022-12-10T08:45:50;101362.00;;;10.03;100.00
69060;BME280;56135;37.534;-122.308;2022-12-10T08:48:16;101362.88;;;10.00;100.00
69060;BME280;56135;37.534;-122.308;2022-12-10T08:50:42;101359.34;;;10.14;100.00
69060;BME280;56135;37.534;-122.308;2022-12-10T08:53:07;101354.97;;;10.17;100.00
69060;BME280;56135;37.534;-122.308;2022-12-10T08:55:37;101359.34;;;10.20;100.00
69060;BME280;56135;37.534;-122.308;2022-12-10T08:58:03;101354.94;;;10.22;100.00
69060;BME280;56135;37.534;-122.308;2022-12-10T09:00:29;101363.75;;;10.26;100.00
69060;BME280;56135;37.534;-122.308;2022-12-10T09:02:54;101358.44;;;10.29;100.00
69060;BME280;56135;37.534;-122.308;2022-12-10T09:05:20;101356.69;;;10.29;100.00
69060;BME280;56135;37.534;-122.308;2022-12-10T09:07:46;101365.47;;;10.31;100.00
69060;BME280;56135;37.534;-122.308;2022-12-10T09:10:12;101359.31;;;10.32;100.00
69060;BME280;56135;37.534;-122.308;2022-12-10T09:12:38;101355.81;;;10.33;100.00
69060;BME280;56135;37.534;-122.308;2022-12-10T09:15:04;101343.50;;;10.39;100.00
69060;BME280;56135;37.534;-122.308;2022-12-10T09:17:31;101334.69;;;10.37;100.00
69060;BME280;56135;37.534;-122.308;2022-12-10T09:19:56;101325.88;;;10.41;100.00
69060;BME280;56135;37.534;-122.308;2022-12-10T09:22:22;101332.06;;;10.35;100.00
69060;BME280;56135;37.534;-122.308;2022-12-10T09:24:48;101315.28;;;10.33;100.00
69060;BME280;56135;37.534;-122.308;2022-12-10T09:27:14;101313.56;;;10.33;100.00
69060;BME280;56135;37.534;-122.308;2022-12-10T09:29:40;101312.69;;;10.39;100.00
69060;BME280;56135;37.534;-122.308;2022-12-10T09:32:06;101316.19;;;10.38;100.00
69060;BME280;56135;37.534;-122.308;2022-12-10T09:34:31;101303.88;;;10.40;100.00
69060;BME280;56135;37.534;-122.308;2022-12-10T09:36:57;101307.38;;;10.42;100.00
69060;BME280;56135;37.534;-122.308;2022-12-10T09:39:23;101300.34;;;10.44;100.00
69060;BME280;56135;37.534;-122.308;2022-12-10T09:46:56;101284.47;;;10.46;100.00
69060;BME280;56135;37.534;-122.308;2022-12-10T09:51:59;101272.16;;;10.48;100.00
69060;BME280;56135;37.534;-122.308;2022-12-10T09:54:31;101276.53;;;10.52;100.00
69060;BME280;56135;37.534;-122.308;2022-12-10T09:56:57;101270.38;;;10.51;100.00
69060;BME280;56135;37.534;-122.308;2022-12-10T09:59:29;101264.22;;;10.45;100.00
69060;BME280;56135;37.534;-122.308;2022-12-10T10:02:38;101243.13;;;10.46;100.00
69060;BME280;56135;37.534;-122.308;2022-12-10T10:04:45;101253.66;;;10.51;100.00
69060;BME280;56135;37.534;-122.308;2022-12-10T10:07:31;101259.81;;;10.53;100.00
69060;BME280;56135;37.534;-122.308;2022-12-10T10:10:01;101254.53;;;10.50;100.00
69060;BME280;56135;37.534;-122.308;2022-12-10T10:12:29;101260.69;;;10.49;100.00
69060;BME280;56135;37.534;-122.308;2022-12-10T10:14:55;101272.16;;;10.49;100.00
69060;BME280;56135;37.534;-122.308;2022-12-10T10:17:23;101259.81;;;10.48;100.00
69060;BME280;56135;37.534;-122.308;2022-12-10T10:19:52;101264.22;;;10.51;100.00
69060;BME280;56135;37.534;-122.308;2022-12-10T10:22:18;101260.69;;;10.52;100.00
69060;BME280;56135;37.534;-122.308;2022-12-10T10:24:45;101256.28;;;10.56;100.00
69060;BME280;56135;37.534;-122.308;2022-12-10T10:27:21;101255.38;;;10.55;100.00
69060;BME280;56135;37.534;-122.308;2022-12-10T10:29:48;101248.34;;;10.57;100.00
69060;BME280;56135;37.534;-122.308;2022-12-10T10:32:28;101242.16;;;10.58;100.00
69060;BME280;56135;37.534;-122.308;2022-12-10T10:35:20;101249.22;;;10.62;100.00
69060;BME280;56135;37.534;-122.308;2022-12-10T10:37:46;101241.28;;;10.62;100.00
69060;BME280;56135;37.534;-122.308;2022-12-10T10:40:32;101237.72;;;10.63;100.00
69060;BME280;56135;37.534;-122.308;2022-12-10T10:42:59;101238.59;;;10.68;100.00
69060;BME280;56135;37.534;-122.308;2022-12-10T10:48:10;101224.47;;;10.71;100.00
69060;BME280;56135;37.534;-122.308;2022-12-10T10:53:28;101234.13;;;10.75;100.00
69060;BME280;56135;37.534;-122.308;2022-12-10T10:56:09;101234.16;;;10.72;100.00
69060;BME280;56135;37.534;-122.308;2022-12-10T10:58:44;101228.03;;;10.65;100.00
69060;BME280;56135;37.534;-122.308;2022-12-10T11:01:11;101228.88;;;10.74;100.00
69060;BME280;56135;37.534;-122.308;2022-12-10T11:03:37;101217.41;;;10.76;100.00
69060;BME280;56135;37.534;-122.308;2022-12-10T11:06:11;101211.22;;;10.79;100.00
69060;BME280;56135;37.534;-122.308;2022-12-10T11:08:38;101204.19;;;10.78;100.00
69060;BME280;56135;37.534;-122.308;2022-12-10T11:11:06;101198.94;;;10.75;100.00
69060;BME280;56135;37.534;-122.308;2022-12-10T11:13:35;101184.81;;;10.79;100.00
69060;BME280;56135;37.534;-122.308;2022-12-10T11:18:41;101168.06;;;10.78;100.00
69060;BME280;56135;37.534;-122.308;2022-12-10T11:21:18;101168.94;;;10.79;100.00
69060;BME280;56135;37.534;-122.308;2022-12-10T11:23:47;101153.09;;;10.79;100.00
69060;BME280;56135;37.534;-122.308;2022-12-10T11:29:05;101149.50;;;10.88;100.00
69060;BME280;56135;37.534;-122.308;2022-12-10T11:31:47;101148.63;;;10.87;100.00
69060;BME280;56135;37.534;-122.308;2022-12-10T11:37:26;101152.19;;;10.80;100.00
69060;BME280;56135;37.534;-122.308;2022-12-10T11:50:07;101133.66;;;10.88;100.00
69060;BME280;56135;37.534;-122.308;2022-12-10T11:52:44;101138.03;;;10.90;100.00
69060;BME280;56135;37.534;-122.308;2022-12-10T12:00:17;101116.06;;;10.85;100.00
69060;BME280;56135;37.534;-122.308;2022-12-10T12:10:43;101100.19;;;10.82;100.00
69060;BME280;56135;37.534;-122.308;2022-12-10T12:13:33;101095.78;;;10.84;100.00
69060;BME280;56135;37.534;-122.308;2022-12-10T12:15:58;101085.25;;;10.82;100.00
69060;BME280;56135;37.534;-122.308;2022-12-10T12:18:36;101079.97;;;10.78;100.00
69060;BME280;56135;37.534;-122.308;2022-12-10T12:21:07;101065.94;;;10.70;100.00
69060;BME280;56135;37.534;-122.308;2022-12-10T12:26:13;101061.59;;;10.65;100.00
69060;BME280;56135;37.534;-122.308;2022-12-10T12:28:41;101060.78;;;10.54;100.00
69060;BME280;56135;37.534;-122.308;2022-12-10T12:31:11;101052.03;;;10.47;100.00
69060;BME280;56135;37.534;-122.308;2022-12-10T12:33:45;101030.94;;;10.44;100.00
69060;BME280;56135;37.534;-122.308;2022-12-10T12:36:14;101025.63;;;10.46;100.00
69060;BME280;56135;37.534;-122.308;2022-12-10T12:41:15;101018.59;;;10.43;100.00
69060;BME280;56135;37.534;-122.308;2022-12-10T12:43:47;101007.22;;;10.37;100.00
69060;BME280;56135;37.534;-122.308;2022-12-10T12:46:16;100995.72;;;10.41;100.00
69060;BME280;56135;37.534;-122.308;2022-12-10T12:48:48;100997.47;;;10.45;100.00
69060;BME280;56135;37.534;-122.308;2022-12-10T12:51:18;100985.22;;;10.34;100.00
69060;BME280;56135;37.534;-122.308;2022-12-10T12:53:45;100982.56;;;10.38;100.00
69060;BME280;56135;37.534;-122.308;2022-12-10T12:56:16;100979.94;;;10.38;100.00
69060;BME280;56135;37.534;-122.308;2022-12-10T12:59:02;100959.69;;;10.33;100.00
69060;BME280;56135;37.534;-122.308;2022-12-10T13:04:04;100948.25;;;10.31;100.00
69060;BME280;56135;37.534;-122.308;2022-12-10T13:06:32;100950.88;;;10.34;100.00
69060;BME280;56135;37.534;-122.308;2022-12-10T13:11:39;100946.44;;;10.40;100.00
69060;BME280;56135;37.534;-122.308;2022-12-10T13:27:03;100925.50;;;10.16;100.00
69060;BME280;56135;37.534;-122.308;2022-12-10T13:29:29;100916.69;;;10.17;100.00
69060;BME280;56135;37.534;-122.308;2022-12-10T13:32:18;100925.47;;;10.18;100.00
69060;BME280;56135;37.534;-122.308;2022-12-10T13:34:45;100924.66;;;10.10;100.00
69060;BME280;56135;37.534;-122.308;2022-12-10T13:39:53;100896.59;;;9.99;100.00
69060;BME280;56135;37.534;-122.308;2022-12-10T13:42:28;100905.38;;;9.98;100.00
69060;BME280;56135;37.534;-122.308;2022-12-10T13:47:48;100877.19;;;10.04;100.00
69060;BME280;56135;37.534;-122.308;2022-12-10T13:52:48;100870.16;;;10.02;100.00